sensor_id;sensor_type;location;lat;lon;timestamp;P1;durP1;ratioP1;P2;durP2;ratioP2
19929;SDS011;10127;47.780;9.606;2022-11-25T00:02:15;12.90;;;5.43;;
19929;SDS011;10127;47.780;9.606;2022-11-25T00:04:40;10.03;;;5.00;;
19929;SDS011;10127;47.780;9.606;2022-11-25T00:07:06;10.23;;;5.27;;
19929;SDS011;10127;47.780;9.606;2022-11-25T00:09:32;9.77;;;4.50;;
19929;SDS011;10127;47.780;9.606;2022-11-25T00:11:57;10.20;;;4.37;;
19929;SDS011;10127;47.780;9.606;2022-11-25T00:14:23;7.30;;;3.70;;
19929;SDS011;10127;47.780;9.606;2022-11-25T00:16:48;8.33;;;3.97;;
19929;SDS011;10127;47.780;9.606;2022-11-25T00:19:14;9.80;;;3.57;;
19929;SDS011;10127;47.780;9.606;2022-11-25T00:21:41;5.60;;;2.57;;
19929;SDS011;10127;47.780;9.606;2022-11-25T00:24:06;4.30;;;3.07;;
19929;SDS011;10127;47.780;9.606;2022-11-25T00:26:33;4.83;;;3.33;;
19929;SDS011;10127;47.780;9.606;2022-11-25T00:29:01;5.87;;;3.60;;
19929;SDS011;10127;47.780;9.606;2022-11-25T00:31:30;5.17;;;3.20;;
19929;SDS011;10127;47.780;9.606;2022-11-25T00:33:58;7.77;;;3.87;;
19929;SDS011;10127;47.780;9.606;2022-11-25T00:38:54;5.17;;;3.67;;
19929;SDS011;10127;47.780;9.606;2022-11-25T00:41:21;5.93;;;3.70;;
19929;SDS011;10127;47.780;9.606;2022-11-25T00:44:06;5.43;;;3.27;;
19929;SDS011;10127;47.780;9.606;2022-11-25T00:46:56;5.47;;;3.03;;
19929;SDS011;10127;47.780;9.606;2022-11-25T00:49:21;4.83;;;3.30;;
19929;SDS011;10127;47.780;9.606;2022-11-25T00:51:47;5.80;;;3.17;;
19929;SDS011;10127;47.780;9.606;2022-11-25T00:54:13;4.40;;;2.80;;
19929;SDS011;10127;47.780;9.606;2022-11-25T00:56:38;3.47;;;2.90;;
19929;SDS011;10127;47.780;9.606;2022-11-25T00:59:05;3.40;;;3.10;;
19929;SDS011;10127;47.780;9.606;2022-11-25T01:01:30;4.93;;;2.77;;
19929;SDS011;10127;47.780;9.606;2022-11-25T01:03:56;4.63;;;3.03;;
19929;SDS011;10127;47.780;9.606;2022-11-25T01:06:22;5.60;;;3.43;;
19929;SDS011;10127;47.780;9.606;2022-11-25T01:08:48;5.87;;;3.20;;
19929;SDS011;10127;47.780;9.606;2022-11-25T01:11:14;4.30;;;2.93;;
19929;SDS011;10127;47.780;9.606;2022-11-25T01:13:42;5.80;;;3.70;;
19929;SDS011;10127;47.780;9.606;2022-11-25T01:16:09;8.70;;;3.13;;
19929;SDS011;10127;47.780;9.606;2022-11-25T01:18:36;7.20;;;3.23;;
19929;SDS011;10127;47.780;9.606;2022-11-25T01:21:35;5.60;;;3.23;;
19929;SDS011;10127;47.780;9.606;2022-11-25T01:23:55;6.60;;;3.73;;
19929;SDS011;10127;47.780;9.606;2022-11-25T01:26:23;10.70;;;3.80;;
19929;SDS011;10127;47.780;9.606;2022-11-25T01:28:53;8.07;;;3.57;;
19929;SDS011;10127;47.780;9.606;2022-11-25T01:31:22;4.80;;;3.40;;
19929;SDS011;10127;47.780;9.606;2022-11-25T01:33:53;5.37;;;3.53;;
19929;SDS011;10127;47.780;9.606;2022-11-25T01:36:20;6.37;;;3.60;;
19929;SDS011;10127;47.780;9.606;2022-11-25T01:38:48;9.57;;;3.77;;
19929;SDS011;10127;47.780;9.606;2022-11-25T01:41:16;6.50;;;3.67;;
19929;SDS011;10127;47.780;9.606;2022-11-25T01:43:42;4.70;;;3.20;;
19929;SDS011;10127;47.780;9.606;2022-11-25T01:46:20;7.50;;;4.13;;
19929;SDS011;10127;47.780;9.606;2022-11-25T01:48:53;5.87;;;3.30;;
19929;SDS011;10127;47.780;9.606;2022-11-25T01:53:53;4.13;;;3.20;;
19929;SDS011;10127;47.780;9.606;2022-11-25T01:56:23;5.53;;;3.57;;
19929;SDS011;10127;47.780;9.606;2022-11-25T01:58:50;6.53;;;3.47;;
19929;SDS011;10127;47.780;9.606;2022-11-25T02:01:16;4.13;;;3.07;;
19929;SDS011;10127;47.780;9.606;2022-11-25T02:03:43;4.63;;;3.50;;
19929;SDS011;10127;47.780;9.606;2022-11-25T02:06:13;6.03;;;3.10;;
19929;SDS011;10127;47.780;9.606;2022-11-25T02:08:49;7.43;;;3.60;;
19929;SDS011;10127;47.780;9.606;2022-11-25T02:11:18;3.87;;;3.27;;
19929;SDS011;10127;47.780;9.606;2022-11-25T02:13:45;6.13;;;3.27;;
19929;SDS011;10127;47.780;9.606;2022-11-25T02:16:13;6.80;;;3.50;;
19929;SDS011;10127;47.780;9.606;2022-11-25T02:18:38;7.57;;;4.13;;
19929;SDS011;10127;47.780;9.606;2022-11-25T02:21:04;7.27;;;3.83;;
19929;SDS011;10127;47.780;9.606;2022-11-25T02:26:20;7.50;;;3.53;;
19929;SDS011;10127;47.780;9.606;2022-11-25T02:28:46;5.20;;;3.80;;
19929;SDS011;10127;47.780;9.606;2022-11-25T02:31:17;5.93;;;3.33;;
19929;SDS011;10127;47.780;9.606;2022-11-25T02:33:47;5.37;;;3.50;;
19929;SDS011;10127;47.780;9.606;2022-11-25T02:36:13;5.70;;;3.17;;
19929;SDS011;10127;47.780;9.606;2022-11-25T02:38:42;3.70;;;3.33;;
19929;SDS011;10127;47.780;9.606;2022-11-25T02:43:42;7.33;;;3.73;;
19929;SDS011;10127;47.780;9.606;2022-11-25T02:46:09;5.53;;;3.60;;
19929;SDS011;10127;47.780;9.606;2022-11-25T02:48:37;5.67;;;3.50;;
19929;SDS011;10127;47.780;9.606;2022-11-25T03:11:41;4.00;;;3.10;;
19929;SDS011;10127;47.780;9.606;2022-11-25T03:14:26;4.33;;;3.17;;
19929;SDS011;10127;47.780;9.606;2022-11-25T03:16:51;4.63;;;3.23;;
19929;SDS011;10127;47.780;9.606;2022-11-25T03:19:17;3.63;;;2.70;;
19929;SDS011;10127;47.780;9.606;2022-11-25T03:21:44;8.03;;;3.27;;
19929;SDS011;10127;47.780;9.606;2022-11-25T03:24:10;5.20;;;3.10;;
19929;SDS011;10127;47.780;9.606;2022-11-25T03:26:36;5.47;;;3.00;;
19929;SDS011;10127;47.780;9.606;2022-11-25T03:29:01;5.80;;;3.13;;
19929;SDS011;10127;47.780;9.606;2022-11-25T03:31:27;3.50;;;3.03;;
19929;SDS011;10127;47.780;9.606;2022-11-25T03:33:53;8.53;;;3.40;;
19929;SDS011;10127;47.780;9.606;2022-11-25T03:36:19;6.47;;;3.63;;
19929;SDS011;10127;47.780;9.606;2022-11-25T03:38:45;3.77;;;3.33;;
19929;SDS011;10127;47.780;9.606;2022-11-25T03:41:10;4.77;;;2.70;;
19929;SDS011;10127;47.780;9.606;2022-11-25T03:43:36;3.97;;;2.60;;
19929;SDS011;10127;47.780;9.606;2022-11-25T03:46:01;6.97;;;3.77;;
19929;SDS011;10127;47.780;9.606;2022-11-25T03:48:27;4.63;;;3.00;;
19929;SDS011;10127;47.780;9.606;2022-11-25T03:50:53;5.60;;;3.27;;
19929;SDS011;10127;47.780;9.606;2022-11-25T03:53:18;3.83;;;3.03;;
19929;SDS011;10127;47.780;9.606;2022-11-25T03:55:46;8.43;;;3.80;;
19929;SDS011;10127;47.780;9.606;2022-11-25T03:58:12;5.20;;;3.17;;
19929;SDS011;10127;47.780;9.606;2022-11-25T04:00:37;4.00;;;3.03;;
19929;SDS011;10127;47.780;9.606;2022-11-25T04:03:03;4.33;;;3.37;;
19929;SDS011;10127;47.780;9.606;2022-11-25T04:05:29;4.03;;;2.83;;
19929;SDS011;10127;47.780;9.606;2022-11-25T04:07:54;5.93;;;3.90;;
19929;SDS011;10127;47.780;9.606;2022-11-25T04:10:20;5.40;;;3.47;;
19929;SDS011;10127;47.780;9.606;2022-11-25T04:12:46;6.63;;;3.97;;
19929;SDS011;10127;47.780;9.606;2022-11-25T04:15:12;7.27;;;3.70;;
19929;SDS011;10127;47.780;9.606;2022-11-25T04:17:38;6.20;;;4.00;;
19929;SDS011;10127;47.780;9.606;2022-11-25T04:20:04;7.40;;;3.70;;
19929;SDS011;10127;47.780;9.606;2022-11-25T04:22:30;6.13;;;3.83;;
19929;SDS011;10127;47.780;9.606;2022-11-25T04:24:56;6.07;;;3.60;;
19929;SDS011;10127;47.780;9.606;2022-11-25T04:27:21;7.73;;;3.67;;
19929;SDS011;10127;47.780;9.606;2022-11-25T04:29:47;4.90;;;3.90;;
19929;SDS011;10127;47.780;9.606;2022-11-25T04:32:13;6.40;;;4.17;;
19929;SDS011;10127;47.780;9.606;2022-11-25T04:34:38;5.50;;;4.00;;
19929;SDS011;10127;47.780;9.606;2022-11-25T04:37:04;6.87;;;3.60;;
19929;SDS011;10127;47.780;9.606;2022-11-25T04:39:30;7.03;;;4.40;;
19929;SDS011;10127;47.780;9.606;2022-11-25T04:41:55;5.47;;;3.70;;
19929;SDS011;10127;47.780;9.606;2022-11-25T04:44:41;6.83;;;4.50;;
19929;SDS011;10127;47.780;9.606;2022-11-25T04:47:06;4.80;;;3.70;;
19929;SDS011;10127;47.780;9.606;2022-11-25T04:49:32;5.00;;;3.77;;
19929;SDS011;10127;47.780;9.606;2022-11-25T04:51:57;11.47;;;7.67;;
19929;SDS011;10127;47.780;9.606;2022-11-25T04:54:23;6.63;;;4.47;;
19929;SDS011;10127;47.780;9.606;2022-11-25T04:56:49;4.47;;;3.70;;
19929;SDS011;10127;47.780;9.606;2022-11-25T04:59:14;4.93;;;3.70;;
19929;SDS011;10127;47.780;9.606;2022-11-25T05:01:58;6.20;;;4.03;;
19929;SDS011;10127;47.780;9.606;2022-11-25T05:04:24;7.87;;;4.17;;
19929;SDS011;10127;47.780;9.606;2022-11-25T05:06:49;6.67;;;4.10;;
19929;SDS011;10127;47.780;9.606;2022-11-25T05:09:15;7.33;;;3.60;;
19929;SDS011;10127;47.780;9.606;2022-11-25T05:11:41;7.20;;;4.10;;
19929;SDS011;10127;47.780;9.606;2022-11-25T05:14:07;8.47;;;4.10;;
19929;SDS011;10127;47.780;9.606;2022-11-25T05:16:33;7.47;;;4.40;;
19929;SDS011;10127;47.780;9.606;2022-11-25T05:19:00;6.43;;;3.80;;
19929;SDS011;10127;47.780;9.606;2022-11-25T05:21:25;6.80;;;3.77;;
19929;SDS011;10127;47.780;9.606;2022-11-25T05:23:52;7.37;;;4.17;;
19929;SDS011;10127;47.780;9.606;2022-11-25T05:26:18;5.57;;;3.23;;
19929;SDS011;10127;47.780;9.606;2022-11-25T05:28:44;6.03;;;3.50;;
19929;SDS011;10127;47.780;9.606;2022-11-25T05:31:09;6.03;;;3.83;;
19929;SDS011;10127;47.780;9.606;2022-11-25T05:33:36;9.87;;;5.87;;
19929;SDS011;10127;47.780;9.606;2022-11-25T05:36:02;8.50;;;5.03;;
19929;SDS011;10127;47.780;9.606;2022-11-25T05:38:28;8.83;;;3.87;;
19929;SDS011;10127;47.780;9.606;2022-11-25T05:41:01;10.97;;;4.23;;
19929;SDS011;10127;47.780;9.606;2022-11-25T05:43:29;5.33;;;3.80;;
19929;SDS011;10127;47.780;9.606;2022-11-25T05:45:55;11.20;;;4.23;;
19929;SDS011;10127;47.780;9.606;2022-11-25T05:48:21;4.30;;;3.70;;
19929;SDS011;10127;47.780;9.606;2022-11-25T05:50:46;33.03;;;15.37;;
19929;SDS011;10127;47.780;9.606;2022-11-25T05:53:12;52.20;;;28.20;;
19929;SDS011;10127;47.780;9.606;2022-11-25T05:55:38;16.47;;;8.83;;
19929;SDS011;10127;47.780;9.606;2022-11-25T05:58:04;15.93;;;8.63;;
19929;SDS011;10127;47.780;9.606;2022-11-25T06:00:30;7.33;;;4.53;;
19929;SDS011;10127;47.780;9.606;2022-11-25T06:02:56;5.53;;;4.00;;
19929;SDS011;10127;47.780;9.606;2022-11-25T06:05:21;5.27;;;3.73;;
19929;SDS011;10127;47.780;9.606;2022-11-25T06:07:47;10.53;;;4.60;;
19929;SDS011;10127;47.780;9.606;2022-11-25T06:10:13;8.17;;;3.77;;
19929;SDS011;10127;47.780;9.606;2022-11-25T06:12:40;5.30;;;4.13;;
19929;SDS011;10127;47.780;9.606;2022-11-25T06:15:06;11.20;;;3.53;;
19929;SDS011;10127;47.780;9.606;2022-11-25T06:17:32;5.90;;;4.07;;
19929;SDS011;10127;47.780;9.606;2022-11-25T06:19:57;7.10;;;3.37;;
19929;SDS011;10127;47.780;9.606;2022-11-25T06:22:23;5.97;;;3.33;;
19929;SDS011;10127;47.780;9.606;2022-11-25T06:24:48;7.37;;;4.90;;
19929;SDS011;10127;47.780;9.606;2022-11-25T06:27:14;7.77;;;3.70;;
19929;SDS011;10127;47.780;9.606;2022-11-25T06:29:40;38.30;;;21.70;;
19929;SDS011;10127;47.780;9.606;2022-11-25T06:32:05;12.13;;;8.07;;
19929;SDS011;10127;47.780;9.606;2022-11-25T06:34:31;5.80;;;3.60;;
19929;SDS011;10127;47.780;9.606;2022-11-25T06:36:56;5.43;;;3.80;;
19929;SDS011;10127;47.780;9.606;2022-11-25T06:39:22;6.10;;;3.90;;
19929;SDS011;10127;47.780;9.606;2022-11-25T06:41:47;6.20;;;3.17;;
19929;SDS011;10127;47.780;9.606;2022-11-25T06:44:13;6.57;;;3.77;;
19929;SDS011;10127;47.780;9.606;2022-11-25T06:46:39;13.47;;;3.80;;
19929;SDS011;10127;47.780;9.606;2022-11-25T06:49:04;5.77;;;3.90;;
19929;SDS011;10127;47.780;9.606;2022-11-25T06:51:31;5.73;;;4.07;;
19929;SDS011;10127;47.780;9.606;2022-11-25T06:53:57;6.93;;;3.97;;
19929;SDS011;10127;47.780;9.606;2022-11-25T06:56:23;6.17;;;3.77;;
19929;SDS011;10127;47.780;9.606;2022-11-25T06:58:51;7.20;;;3.90;;
19929;SDS011;10127;47.780;9.606;2022-11-25T07:01:22;7.20;;;3.67;;
19929;SDS011;10127;47.780;9.606;2022-11-25T07:03:57;5.17;;;3.40;;
19929;SDS011;10127;47.780;9.606;2022-11-25T07:06:24;6.80;;;4.03;;
19929;SDS011;10127;47.780;9.606;2022-11-25T07:08:50;5.23;;;3.93;;
19929;SDS011;10127;47.780;9.606;2022-11-25T07:11:20;8.80;;;4.10;;
19929;SDS011;10127;47.780;9.606;2022-11-25T07:13:46;12.13;;;4.30;;
19929;SDS011;10127;47.780;9.606;2022-11-25T07:16:15;15.10;;;4.47;;
19929;SDS011;10127;47.780;9.606;2022-11-25T07:18:41;7.90;;;3.80;;
19929;SDS011;10127;47.780;9.606;2022-11-25T07:21:08;11.57;;;4.03;;
19929;SDS011;10127;47.780;9.606;2022-11-25T07:23:36;13.10;;;4.20;;
19929;SDS011;10127;47.780;9.606;2022-11-25T07:26:04;11.33;;;5.33;;
19929;SDS011;10127;47.780;9.606;2022-11-25T07:28:32;15.13;;;4.90;;
19929;SDS011;10127;47.780;9.606;2022-11-25T07:31:13;9.30;;;4.60;;
19929;SDS011;10127;47.780;9.606;2022-11-25T07:33:45;12.07;;;4.80;;
19929;SDS011;10127;47.780;9.606;2022-11-25T07:36:11;12.83;;;7.07;;
19929;SDS011;10127;47.780;9.606;2022-11-25T07:38:39;10.00;;;4.63;;
19929;SDS011;10127;47.780;9.606;2022-11-25T07:41:15;7.63;;;4.80;;
19929;SDS011;10127;47.780;9.606;2022-11-25T07:43:49;15.67;;;5.20;;
19929;SDS011;10127;47.780;9.606;2022-11-25T07:46:23;13.47;;;5.00;;
19929;SDS011;10127;47.780;9.606;2022-11-25T07:48:58;15.57;;;4.80;;
19929;SDS011;10127;47.780;9.606;2022-11-25T07:51:26;6.60;;;4.03;;
19929;SDS011;10127;47.780;9.606;2022-11-25T07:53:54;7.70;;;4.23;;
19929;SDS011;10127;47.780;9.606;2022-11-25T07:56:21;13.53;;;5.23;;
19929;SDS011;10127;47.780;9.606;2022-11-25T07:58:47;9.37;;;4.50;;
19929;SDS011;10127;47.780;9.606;2022-11-25T08:01:13;15.17;;;5.13;;
19929;SDS011;10127;47.780;9.606;2022-11-25T08:03:40;15.47;;;5.20;;
19929;SDS011;10127;47.780;9.606;2022-11-25T08:06:08;12.67;;;4.90;;
19929;SDS011;10127;47.780;9.606;2022-11-25T08:08:36;13.70;;;5.57;;
19929;SDS011;10127;47.780;9.606;2022-11-25T08:11:09;16.67;;;7.00;;
19929;SDS011;10127;47.780;9.606;2022-11-25T08:13:37;11.37;;;4.17;;
19929;SDS011;10127;47.780;9.606;2022-11-25T08:16:03;8.90;;;4.43;;
19929;SDS011;10127;47.780;9.606;2022-11-25T08:18:29;18.57;;;4.70;;
19929;SDS011;10127;47.780;9.606;2022-11-25T08:20:59;9.13;;;5.50;;
19929;SDS011;10127;47.780;9.606;2022-11-25T08:23:26;11.97;;;4.80;;
19929;SDS011;10127;47.780;9.606;2022-11-25T08:25:52;13.37;;;5.27;;
19929;SDS011;10127;47.780;9.606;2022-11-25T08:28:17;12.20;;;4.77;;
19929;SDS011;10127;47.780;9.606;2022-11-25T08:30:43;10.47;;;5.23;;
19929;SDS011;10127;47.780;9.606;2022-11-25T08:33:09;9.93;;;5.27;;
19929;SDS011;10127;47.780;9.606;2022-11-25T08:35:34;9.47;;;4.57;;
19929;SDS011;10127;47.780;9.606;2022-11-25T08:38:06;11.93;;;6.13;;
19929;SDS011;10127;47.780;9.606;2022-11-25T08:40:33;11.40;;;5.20;;
19929;SDS011;10127;47.780;9.606;2022-11-25T08:43:00;13.80;;;5.37;;
19929;SDS011;10127;47.780;9.606;2022-11-25T08:45:26;13.50;;;4.93;;
19929;SDS011;10127;47.780;9.606;2022-11-25T08:47:52;13.33;;;5.47;;
19929;SDS011;10127;47.780;9.606;2022-11-25T08:50:17;44.37;;;17.87;;
19929;SDS011;10127;47.780;9.606;2022-11-25T08:52:43;187.30;;;82.63;;
19929;SDS011;10127;47.780;9.606;2022-11-25T08:55:09;143.40;;;70.20;;
19929;SDS011;10127;47.780;9.606;2022-11-25T08:57:35;26.93;;;13.03;;
19929;SDS011;10127;47.780;9.606;2022-11-25T09:00:00;13.97;;;7.17;;
19929;SDS011;10127;47.780;9.606;2022-11-25T09:02:27;20.33;;;8.57;;
19929;SDS011;10127;47.780;9.606;2022-11-25T09:04:53;9.73;;;5.17;;
19929;SDS011;10127;47.780;9.606;2022-11-25T09:07:18;11.20;;;5.93;;
19929;SDS011;10127;47.780;9.606;2022-11-25T09:09:44;9.73;;;4.80;;
19929;SDS011;10127;47.780;9.606;2022-11-25T09:12:10;8.20;;;4.83;;
19929;SDS011;10127;47.780;9.606;2022-11-25T09:14:35;8.63;;;4.50;;
19929;SDS011;10127;47.780;9.606;2022-11-25T09:17:01;7.63;;;4.60;;
19929;SDS011;10127;47.780;9.606;2022-11-25T09:19:31;16.40;;;6.70;;
19929;SDS011;10127;47.780;9.606;2022-11-25T09:21:57;13.07;;;7.07;;
19929;SDS011;10127;47.780;9.606;2022-11-25T09:24:22;12.27;;;5.30;;
19929;SDS011;10127;47.780;9.606;2022-11-25T09:26:48;9.77;;;5.57;;
19929;SDS011;10127;47.780;9.606;2022-11-25T09:29:14;14.30;;;6.90;;
19929;SDS011;10127;47.780;9.606;2022-11-25T09:31:39;12.37;;;5.77;;
19929;SDS011;10127;47.780;9.606;2022-11-25T09:34:05;12.00;;;5.60;;
19929;SDS011;10127;47.780;9.606;2022-11-25T09:36:32;8.23;;;5.00;;
19929;SDS011;10127;47.780;9.606;2022-11-25T09:38:58;13.20;;;5.13;;
19929;SDS011;10127;47.780;9.606;2022-11-25T09:41:47;9.67;;;5.27;;
19929;SDS011;10127;47.780;9.606;2022-11-25T09:47:46;9.40;;;4.77;;
19929;SDS011;10127;47.780;9.606;2022-11-25T09:52:59;7.73;;;4.27;;
19929;SDS011;10127;47.780;9.606;2022-11-25T09:55:29;7.70;;;5.23;;
19929;SDS011;10127;47.780;9.606;2022-11-25T10:00:37;10.03;;;6.57;;
19929;SDS011;10127;47.780;9.606;2022-11-25T10:08:27;8.30;;;4.50;;
19929;SDS011;10127;47.780;9.606;2022-11-25T10:11:00;8.67;;;4.23;;
19929;SDS011;10127;47.780;9.606;2022-11-25T10:14:25;9.07;;;4.70;;
19929;SDS011;10127;47.780;9.606;2022-11-25T10:25:15;7.63;;;5.63;;
19929;SDS011;10127;47.780;9.606;2022-11-25T10:27:58;7.47;;;3.97;;
19929;SDS011;10127;47.780;9.606;2022-11-25T10:30:36;5.10;;;3.20;;
19929;SDS011;10127;47.780;9.606;2022-11-25T10:33:13;4.30;;;2.57;;
19929;SDS011;10127;47.780;9.606;2022-11-25T10:41:02;3.07;;;2.00;;
19929;SDS011;10127;47.780;9.606;2022-11-25T10:43:28;4.03;;;1.90;;
19929;SDS011;10127;47.780;9.606;2022-11-25T10:46:09;6.70;;;2.10;;
19929;SDS011;10127;47.780;9.606;2022-11-25T10:49:12;3.40;;;2.00;;
19929;SDS011;10127;47.780;9.606;2022-11-25T10:51:50;7.57;;;2.30;;
19929;SDS011;10127;47.780;9.606;2022-11-25T10:54:20;6.13;;;2.30;;
19929;SDS011;10127;47.780;9.606;2022-11-25T10:56:58;4.40;;;2.23;;
19929;SDS011;10127;47.780;9.606;2022-11-25T10:59:29;5.77;;;2.53;;
19929;SDS011;10127;47.780;9.606;2022-11-25T11:02:16;7.93;;;3.80;;
19929;SDS011;10127;47.780;9.606;2022-11-25T11:05:33;6.67;;;2.80;;
19929;SDS011;10127;47.780;9.606;2022-11-25T11:07:38;4.43;;;2.20;;
19929;SDS011;10127;47.780;9.606;2022-11-25T11:10:26;6.03;;;2.93;;
19929;SDS011;10127;47.780;9.606;2022-11-25T11:15:25;6.83;;;3.70;;
19929;SDS011;10127;47.780;9.606;2022-11-25T11:17:52;4.20;;;2.43;;
19929;SDS011;10127;47.780;9.606;2022-11-25T11:20:23;7.70;;;2.73;;
19929;SDS011;10127;47.780;9.606;2022-11-25T11:25:32;5.43;;;3.57;;
19929;SDS011;10127;47.780;9.606;2022-11-25T11:27:59;2.67;;;2.27;;
19929;SDS011;10127;47.780;9.606;2022-11-25T11:30:30;4.30;;;2.30;;
19929;SDS011;10127;47.780;9.606;2022-11-25T11:33:05;5.20;;;3.10;;
19929;SDS011;10127;47.780;9.606;2022-11-25T11:43:56;8.00;;;3.72;;
19929;SDS011;10127;47.780;9.606;2022-11-25T11:49:04;9.43;;;5.00;;
19929;SDS011;10127;47.780;9.606;2022-11-25T11:54:41;8.68;;;4.22;;
19929;SDS011;10127;47.780;9.606;2022-11-25T11:57:29;6.25;;;3.00;;
19929;SDS011;10127;47.780;9.606;2022-11-25T12:00:10;15.03;;;8.70;;
19929;SDS011;10127;47.780;9.606;2022-11-25T12:10:37;4.65;;;2.55;;
19929;SDS011;10127;47.780;9.606;2022-11-25T12:13:34;5.65;;;2.58;;
19929;SDS011;10127;47.780;9.606;2022-11-25T12:16:42;5.45;;;2.75;;
19929;SDS011;10127;47.780;9.606;2022-11-25T12:19:16;5.95;;;2.35;;
19929;SDS011;10127;47.780;9.606;2022-11-25T12:22:41;6.60;;;2.17;;
19929;SDS011;10127;47.780;9.606;2022-11-25T12:25:19;4.68;;;2.40;;
19929;SDS011;10127;47.780;9.606;2022-11-25T12:27:55;6.43;;;2.08;;
19929;SDS011;10127;47.780;9.606;2022-11-25T12:31:15;6.60;;;2.53;;
19929;SDS011;10127;47.780;9.606;2022-11-25T12:36:25;4.93;;;2.40;;
19929;SDS011;10127;47.780;9.606;2022-11-25T12:39:20;4.32;;;2.50;;
19929;SDS011;10127;47.780;9.606;2022-11-25T12:41:58;4.78;;;2.90;;
19929;SDS011;10127;47.780;9.606;2022-11-25T12:44:36;5.22;;;2.53;;
19929;SDS011;10127;47.780;9.606;2022-11-25T12:47:24;6.50;;;3.55;;
19929;SDS011;10127;47.780;9.606;2022-11-25T12:49:50;7.18;;;3.17;;
19929;SDS011;10127;47.780;9.606;2022-11-25T12:52:39;4.57;;;2.50;;
19929;SDS011;10127;47.780;9.606;2022-11-25T13:05:58;5.88;;;2.83;;
19929;SDS011;10127;47.780;9.606;2022-11-25T13:17:16;7.20;;;4.10;;
19929;SDS011;10127;47.780;9.606;2022-11-25T13:19:42;6.10;;;3.85;;
19929;SDS011;10127;47.780;9.606;2022-11-25T13:22:29;9.32;;;3.85;;
19929;SDS011;10127;47.780;9.606;2022-11-25T13:24:55;7.43;;;3.78;;
19929;SDS011;10127;47.780;9.606;2022-11-25T13:27:32;7.00;;;3.35;;
19929;SDS011;10127;47.780;9.606;2022-11-25T13:30:00;9.02;;;3.15;;
19929;SDS011;10127;47.780;9.606;2022-11-25T13:32:29;8.35;;;3.03;;
19929;SDS011;10127;47.780;9.606;2022-11-25T13:37:59;5.25;;;3.13;;
19929;SDS011;10127;47.780;9.606;2022-11-25T13:42:51;6.72;;;3.25;;
19929;SDS011;10127;47.780;9.606;2022-11-25T13:45:27;44.13;;;23.73;;
19929;SDS011;10127;47.780;9.606;2022-11-25T13:48:02;17.45;;;9.15;;
19929;SDS011;10127;47.780;9.606;2022-11-25T13:50:49;9.88;;;4.90;;
19929;SDS011;10127;47.780;9.606;2022-11-25T13:53:17;10.93;;;4.13;;
19929;SDS011;10127;47.780;9.606;2022-11-25T13:55:44;8.05;;;3.45;;
19929;SDS011;10127;47.780;9.606;2022-11-25T14:17:26;6.82;;;2.92;;
19929;SDS011;10127;47.780;9.606;2022-11-25T14:20:29;6.20;;;2.85;;
19929;SDS011;10127;47.780;9.606;2022-11-25T14:23:23;14.23;;;3.60;;
19929;SDS011;10127;47.780;9.606;2022-11-25T14:25:54;12.00;;;4.47;;
19929;SDS011;10127;47.780;9.606;2022-11-25T14:28:32;13.00;;;5.82;;
19929;SDS011;10127;47.780;9.606;2022-11-25T14:31:16;35.15;;;16.30;;
19929;SDS011;10127;47.780;9.606;2022-11-25T14:33:51;20.52;;;10.90;;
19929;SDS011;10127;47.780;9.606;2022-11-25T14:36:29;12.88;;;5.18;;
19929;SDS011;10127;47.780;9.606;2022-11-25T14:39:02;12.35;;;4.95;;
19929;SDS011;10127;47.780;9.606;2022-11-25T14:41:51;15.60;;;5.88;;
19929;SDS011;10127;47.780;9.606;2022-11-25T14:45:06;13.40;;;5.45;;
19929;SDS011;10127;47.780;9.606;2022-11-25T14:47:15;14.00;;;5.57;;
19929;SDS011;10127;47.780;9.606;2022-11-25T14:49:50;7.80;;;3.92;;
19929;SDS011;10127;47.780;9.606;2022-11-25T14:52:24;8.07;;;4.10;;
19929;SDS011;10127;47.780;9.606;2022-11-25T14:54:51;10.60;;;4.22;;
19929;SDS011;10127;47.780;9.606;2022-11-25T14:57:23;10.55;;;3.95;;
19929;SDS011;10127;47.780;9.606;2022-11-25T15:00:09;11.60;;;3.83;;
19929;SDS011;10127;47.780;9.606;2022-11-25T15:02:40;10.73;;;3.77;;
19929;SDS011;10127;47.780;9.606;2022-11-25T15:05:17;15.70;;;3.73;;
19929;SDS011;10127;47.780;9.606;2022-11-25T15:07:55;8.23;;;3.75;;
19929;SDS011;10127;47.780;9.606;2022-11-25T15:10:39;9.57;;;3.63;;
19929;SDS011;10127;47.780;9.606;2022-11-25T15:13:12;15.30;;;3.90;;
19929;SDS011;10127;47.780;9.606;2022-11-25T15:15:59;5.57;;;3.67;;
19929;SDS011;10127;47.780;9.606;2022-11-25T15:18:30;8.13;;;3.65;;
19929;SDS011;10127;47.780;9.606;2022-11-25T15:20:58;9.32;;;3.90;;
19929;SDS011;10127;47.780;9.606;2022-11-25T15:23:27;7.57;;;4.30;;
19929;SDS011;10127;47.780;9.606;2022-11-25T15:26:00;11.73;;;4.97;;
19929;SDS011;10127;47.780;9.606;2022-11-25T15:28:37;9.57;;;4.35;;
19929;SDS011;10127;47.780;9.606;2022-11-25T15:31:07;12.17;;;4.37;;
19929;SDS011;10127;47.780;9.606;2022-11-25T15:33:34;12.80;;;4.80;;
19929;SDS011;10127;47.780;9.606;2022-11-25T15:36:01;10.23;;;5.43;;
19929;SDS011;10127;47.780;9.606;2022-11-25T15:38:35;17.77;;;7.90;;
19929;SDS011;10127;47.780;9.606;2022-11-25T15:41:05;28.47;;;14.87;;
19929;SDS011;10127;47.780;9.606;2022-11-25T15:43:57;17.38;;;9.00;;
19929;SDS011;10127;47.780;9.606;2022-11-25T15:46:25;14.27;;;6.93;;
19929;SDS011;10127;47.780;9.606;2022-11-25T15:48:54;15.32;;;6.88;;
19929;SDS011;10127;47.780;9.606;2022-11-25T15:53:55;13.77;;;7.13;;
19929;SDS011;10127;47.780;9.606;2022-11-25T15:56:52;15.37;;;6.37;;
19929;SDS011;10127;47.780;9.606;2022-11-25T16:07:38;10.40;;;7.07;;
19929;SDS011;10127;47.780;9.606;2022-11-25T16:10:19;11.70;;;6.53;;
19929;SDS011;10127;47.780;9.606;2022-11-25T16:18:29;17.40;;;8.60;;
19929;SDS011;10127;47.780;9.606;2022-11-25T16:20:56;20.03;;;8.33;;
19929;SDS011;10127;47.780;9.606;2022-11-25T16:23:25;18.20;;;9.03;;
19929;SDS011;10127;47.780;9.606;2022-11-25T16:25:56;17.15;;;8.70;;
19929;SDS011;10127;47.780;9.606;2022-11-25T16:28:26;15.97;;;8.37;;
19929;SDS011;10127;47.780;9.606;2022-11-25T16:30:52;23.00;;;8.47;;
19929;SDS011;10127;47.780;9.606;2022-11-25T16:33:21;15.87;;;7.40;;
19929;SDS011;10127;47.780;9.606;2022-11-25T16:35:48;13.13;;;6.87;;
19929;SDS011;10127;47.780;9.606;2022-11-25T16:38:14;13.97;;;6.53;;
19929;SDS011;10127;47.780;9.606;2022-11-25T16:40:39;12.53;;;7.17;;
19929;SDS011;10127;47.780;9.606;2022-11-25T16:43:06;10.60;;;6.57;;
19929;SDS011;10127;47.780;9.606;2022-11-25T16:45:43;15.25;;;7.80;;
19929;SDS011;10127;47.780;9.606;2022-11-25T16:48:14;12.33;;;7.53;;
19929;SDS011;10127;47.780;9.606;2022-11-25T16:50:41;16.50;;;7.83;;
19929;SDS011;10127;47.780;9.606;2022-11-25T16:53:07;14.97;;;8.03;;
19929;SDS011;10127;47.780;9.606;2022-11-25T16:55:33;13.63;;;7.90;;
19929;SDS011;10127;47.780;9.606;2022-11-25T16:58:00;13.10;;;7.43;;
19929;SDS011;10127;47.780;9.606;2022-11-25T17:00:26;19.30;;;8.03;;
19929;SDS011;10127;47.780;9.606;2022-11-25T17:02:51;15.20;;;7.70;;
19929;SDS011;10127;47.780;9.606;2022-11-25T17:05:18;15.03;;;7.17;;
19929;SDS011;10127;47.780;9.606;2022-11-25T17:07:46;14.55;;;6.88;;
19929;SDS011;10127;47.780;9.606;2022-11-25T17:10:14;10.13;;;7.00;;
19929;SDS011;10127;47.780;9.606;2022-11-25T17:12:40;13.60;;;7.33;;
19929;SDS011;10127;47.780;9.606;2022-11-25T17:15:13;12.60;;;7.93;;
19929;SDS011;10127;47.780;9.606;2022-11-25T17:17:41;15.07;;;7.20;;
19929;SDS011;10127;47.780;9.606;2022-11-25T17:20:15;14.80;;;7.50;;
19929;SDS011;10127;47.780;9.606;2022-11-25T17:22:42;15.57;;;7.63;;
19929;SDS011;10127;47.780;9.606;2022-11-25T17:25:10;16.23;;;8.83;;
19929;SDS011;10127;47.780;9.606;2022-11-25T17:27:36;17.03;;;8.23;;
19929;SDS011;10127;47.780;9.606;2022-11-25T17:30:03;17.07;;;8.00;;
19929;SDS011;10127;47.780;9.606;2022-11-25T17:32:30;20.07;;;8.63;;